SFR196 FALE-FACT
Flight info
| Callsign | SFR196 |
|---|---|
| Flight time | N/A |
| Altitude | 38000 |
| Route | TUBIN1B TUBIN UZ3 ESRUK UQ51 GETEN GETEN1B |
| Aircraft | B738/M-SDE2E3FGHIRWXY/LB1 |
Departure
| Time | 2026-04-28 14:51 |
|---|---|
| Airport | King Shaka International Airport (FALE) |
Arrival
| Time | N/A |
|---|---|
| Airport | Cape Town International Airport (FACT) |
| Time | Latitude | Longitude | Altitude | Speed | Heading |
|---|---|---|---|---|---|
| 2026-04-28 14:34 | -29.61873 | 31.10658 | 280 ft | 0 kts | 308° |
| 2026-04-28 14:42 | -29.61874 | 31.10659 | 281 ft | 2 kts | 308° |
| 2026-04-28 14:42 | -29.61890 | 31.10681 | 279 ft | 4 kts | 321° |
| 2026-04-28 14:42 | -29.61913 | 31.10696 | 279 ft | 4 kts | 352° |
| 2026-04-28 14:43 | -29.61933 | 31.10693 | 279 ft | 1 kts | 34° |
| 2026-04-28 14:44 | -29.61915 | 31.10707 | 285 ft | 14 kts | 34° |
| 2026-04-28 14:45 | -29.61812 | 31.10797 | 279 ft | 19 kts | 38° |
| 2026-04-28 14:45 | -29.61707 | 31.10890 | 279 ft | 19 kts | 40° |
| 2026-04-28 14:45 | -29.61711 | 31.11012 | 279 ft | 18 kts | 126° |
| 2026-04-28 14:45 | -29.61780 | 31.11122 | 279 ft | 17 kts | 113° |
| 2026-04-28 14:46 | -29.61733 | 31.11205 | 279 ft | 18 kts | 35° |
| 2026-04-28 14:46 | -29.61607 | 31.11308 | 279 ft | 23 kts | 37° |
| 2026-04-28 14:46 | -29.61483 | 31.11416 | 279 ft | 22 kts | 38° |
| 2026-04-28 14:46 | -29.61362 | 31.11525 | 280 ft | 22 kts | 37° |
| 2026-04-28 14:47 | -29.61241 | 31.11627 | 280 ft | 21 kts | 35° |
| 2026-04-28 14:47 | -29.61126 | 31.11726 | 280 ft | 20 kts | 37° |
| 2026-04-28 14:47 | -29.61018 | 31.11828 | 280 ft | 20 kts | 32° |
| 2026-04-28 14:47 | -29.60908 | 31.11920 | 279 ft | 19 kts | 38° |
| 2026-04-28 14:48 | -29.60858 | 31.12007 | 280 ft | 0 kts | 105° |
| 2026-04-28 14:49 | -29.60907 | 31.12037 | 279 ft | 18 kts | 167° |
| 2026-04-28 14:50 | -29.61034 | 31.12058 | 281 ft | 18 kts | 199° |
| 2026-04-28 14:50 | -29.61084 | 31.12014 | 280 ft | 0 kts | 216° |
| 2026-04-28 14:50 | -29.61127 | 31.11977 | 281 ft | 35 kts | 217° |
| 2026-04-28 14:51 | -29.61543 | 31.11613 | 281 ft | 113 kts | 216° |
| 2026-04-28 14:51 | -29.62339 | 31.10926 | 376 ft | 166 kts | 214° |
| 2026-04-28 14:51 | -29.63238 | 31.10097 | 1340 ft | 156 kts | 215° |
| 2026-04-28 14:51 | -29.64089 | 31.09330 | 2249 ft | 160 kts | 216° |
| 2026-04-28 14:52 | -29.65044 | 31.08471 | 2631 ft | 190 kts | 213° |
| 2026-04-28 14:52 | -29.66097 | 31.07397 | 2858 ft | 220 kts | 232° |
| 2026-04-28 14:52 | -29.66883 | 31.05791 | 3190 ft | 243 kts | 238° |
| 2026-04-28 14:52 | -29.67708 | 31.04037 | 3806 ft | 254 kts | 239° |
| 2026-04-28 14:53 | -29.68555 | 31.02248 | 4838 ft | 252 kts | 240° |
| 2026-04-28 14:53 | -29.69397 | 31.00482 | 5818 ft | 254 kts | 240° |
| 2026-04-28 14:53 | -29.70256 | 30.98690 | 6718 ft | 258 kts | 241° |
| 2026-04-28 14:53 | -29.71138 | 30.96859 | 7508 ft | 264 kts | 242° |
| 2026-04-28 14:54 | -29.72033 | 30.95005 | 8404 ft | 265 kts | 242° |
| 2026-04-28 14:54 | -29.72928 | 30.93153 | 9340 ft | 266 kts | 244° |
| 2026-04-28 14:54 | -29.73529 | 30.91913 | 9930 ft | 268 kts | 244° |
| 2026-04-28 14:54 | -29.74445 | 30.90018 | 10613 ft | 278 kts | 244° |
| 2026-04-28 14:55 | -29.75428 | 30.87979 | 10824 ft | 304 kts | 244° |
| 2026-04-28 14:55 | -29.76499 | 30.85761 | 10999 ft | 328 kts | 244° |
| 2026-04-28 14:55 | -29.77643 | 30.83395 | 11218 ft | 349 kts | 244° |
| 2026-04-28 14:55 | -29.78844 | 30.80920 | 11800 ft | 355 kts | 244° |
| 2026-04-28 14:56 | -29.80049 | 30.78441 | 12667 ft | 353 kts | 244° |
| 2026-04-28 14:56 | -29.81633 | 30.75178 | 13852 ft | 351 kts | 243° |
| 2026-04-28 14:56 | -29.82423 | 30.73545 | 14294 ft | 352 kts | 244° |
| 2026-04-28 14:56 | -29.83617 | 30.71075 | 14927 ft | 354 kts | 244° |
| 2026-04-28 14:57 | -29.84814 | 30.68595 | 15560 ft | 355 kts | 244° |
| 2026-04-28 14:57 | -29.86021 | 30.66094 | 16207 ft | 357 kts | 244° |
| 2026-04-28 14:57 | -29.87230 | 30.63585 | 16898 ft | 358 kts | 244° |
| 2026-04-28 14:57 | -29.88443 | 30.61072 | 17553 ft | 359 kts | 244° |
| 2026-04-28 14:58 | -29.89661 | 30.58546 | 18168 ft | 361 kts | 245° |
| 2026-04-28 14:58 | -29.90881 | 30.56012 | 18705 ft | 362 kts | 245° |
| 2026-04-28 14:58 | -29.92089 | 30.53502 | 19237 ft | 362 kts | 245° |
| 2026-04-28 14:58 | -29.93307 | 30.50966 | 19763 ft | 363 kts | 245° |
| 2026-04-28 14:59 | -29.94532 | 30.48415 | 20264 ft | 363 kts | 245° |
| 2026-04-28 14:59 | -29.95755 | 30.45867 | 20784 ft | 364 kts | 245° |
| 2026-04-28 14:59 | -29.96984 | 30.43305 | 21265 ft | 364 kts | 245° |
| 2026-04-28 14:59 | -29.98210 | 30.40749 | 21763 ft | 364 kts | 245° |
| 2026-04-28 15:00 | -29.99434 | 30.38195 | 22304 ft | 363 kts | 245° |
| 2026-04-28 15:00 | -30.00656 | 30.35643 | 22742 ft | 364 kts | 245° |
| 2026-04-28 15:00 | -30.01885 | 30.33072 | 23089 ft | 367 kts | 245° |
| 2026-04-28 15:00 | -30.03118 | 30.30494 | 23492 ft | 368 kts | 245° |
| 2026-04-28 15:01 | -30.04371 | 30.27915 | 23835 ft | 369 kts | 245° |
| 2026-04-28 15:01 | -30.05659 | 30.25347 | 24144 ft | 370 kts | 245° |
| 2026-04-28 15:01 | -30.06946 | 30.22807 | 24419 ft | 372 kts | 245° |
| 2026-04-28 15:01 | -30.08257 | 30.20227 | 24699 ft | 373 kts | 245° |
| 2026-04-28 15:02 | -30.09569 | 30.17635 | 24993 ft | 373 kts | 245° |
| 2026-04-28 15:02 | -30.10877 | 30.15042 | 25288 ft | 374 kts | 245° |
| 2026-04-28 15:02 | -30.12185 | 30.12439 | 25501 ft | 376 kts | 245° |
| 2026-04-28 15:02 | -30.13500 | 30.09818 | 25782 ft | 377 kts | 246° |
| 2026-04-28 15:03 | -30.14813 | 30.07201 | 26074 ft | 377 kts | 246° |
| 2026-04-28 15:03 | -30.16129 | 30.04576 | 26317 ft | 378 kts | 246° |
| 2026-04-28 15:03 | -30.17446 | 30.01945 | 26533 ft | 379 kts | 246° |
| 2026-04-28 15:03 | -30.18765 | 29.99310 | 26763 ft | 380 kts | 246° |
| 2026-04-28 15:04 | -30.20092 | 29.96655 | 26962 ft | 381 kts | 246° |
| 2026-04-28 15:04 | -30.21419 | 29.93999 | 27153 ft | 383 kts | 246° |
| 2026-04-28 15:04 | -30.22752 | 29.91331 | 27338 ft | 383 kts | 246° |
| 2026-04-28 15:04 | -30.24081 | 29.88667 | 27510 ft | 382 kts | 246° |
| 2026-04-28 15:05 | -30.25408 | 29.86010 | 27757 ft | 381 kts | 246° |
| 2026-04-28 15:05 | -30.26735 | 29.83348 | 27893 ft | 382 kts | 246° |
| 2026-04-28 15:05 | -30.28055 | 29.80693 | 28173 ft | 379 kts | 247° |
| 2026-04-28 15:05 | -30.29240 | 29.77997 | 28502 ft | 373 kts | 251° |
| 2026-04-28 15:06 | -30.30315 | 29.75312 | 28723 ft | 372 kts | 251° |
| 2026-04-28 15:06 | -30.31400 | 29.72587 | 28893 ft | 373 kts | 251° |
| 2026-04-28 15:06 | -30.32485 | 29.69861 | 29084 ft | 373 kts | 251° |
| 2026-04-28 15:06 | -30.33568 | 29.67139 | 29371 ft | 371 kts | 251° |
| 2026-04-28 15:07 | -30.34649 | 29.64428 | 29692 ft | 369 kts | 251° |
| 2026-04-28 15:07 | -30.35724 | 29.61735 | 29987 ft | 368 kts | 251° |
| 2026-04-28 15:07 | -30.36800 | 29.59048 | 30205 ft | 367 kts | 251° |
| 2026-04-28 15:07 | -30.37870 | 29.56366 | 30395 ft | 366 kts | 251° |
| 2026-04-28 15:08 | -30.38935 | 29.53690 | 30604 ft | 365 kts | 252° |